Terminal Aerodrome Forecast
Issued by NWS

Home | Current Version | Previous Version | Graphics & Text | Print | Product List | Glossary On
Versions: 1 2 3 4 5 6 7 8 9 10 11 12 13 14 15 16 17 18 19 20
000
FTUS43 KMPX 141100
TAFAXN
TAF
KAXN 141140Z 1412/1512 35012G19KT P6SM SCT150
     FM141900 34016G24KT P6SM SCT080 SCT150
     FM150100 33009KT P6SM FEW080
     FM150700 30004KT P6SM SKC=

USA.gov is the U.S. government's official web portal to all federal, state and local government web resources and services.